createdAt,value
2019-02-24T00:01:35.739Z,44.43
2019-02-24T00:04:05.395Z,44.51
2019-02-24T00:06:35.848Z,44.45
2019-02-24T00:09:06.437Z,44.06
2019-02-24T00:11:36.488Z,44.32
2019-02-24T00:14:06.298Z,44.39
2019-02-24T00:16:36.027Z,44.66
2019-02-24T00:19:05.768Z,44.55
2019-02-24T00:21:35.429Z,44.73
2019-02-24T00:24:05.120Z,44.37
2019-02-24T00:26:34.784Z,44.51
2019-02-24T00:29:04.484Z,44.32
2019-02-24T00:31:34.215Z,44.48
2019-02-24T00:34:03.895Z,44.51
2019-02-24T00:36:33.626Z,44.58
2019-02-24T00:39:03.757Z,44.39
2019-02-24T00:41:33.415Z,43.74
2019-02-24T00:44:03.203Z,44.08
2019-02-24T00:46:32.853Z,43.86
2019-02-24T00:49:02.555Z,43.86
2019-02-24T00:51:32.193Z,43.90
2019-02-24T00:54:02.076Z,43.94
2019-02-24T00:56:31.748Z,43.64
2019-02-24T00:59:02.557Z,43.65
2019-02-24T01:01:32.300Z,43.77
2019-02-24T01:04:01.976Z,43.46
2019-02-24T01:06:31.692Z,43.35
2019-02-24T01:09:01.395Z,43.12
2019-02-24T01:11:31.207Z,42.96
2019-02-24T01:14:00.901Z,42.87
2019-02-24T01:16:30.707Z,42.84
2019-02-24T01:19:00.426Z,42.65
2019-02-24T01:21:30.359Z,42.61
2019-02-24T01:24:00.104Z,42.40
2019-02-24T01:26:29.825Z,41.86
2019-02-24T01:28:59.564Z,42.17
2019-02-24T01:31:29.301Z,42.08
2019-02-24T01:33:59.049Z,42.05
2019-02-24T01:36:28.700Z,42.20
2019-02-24T01:38:58.776Z,42.21
2019-02-24T01:41:28.652Z,42.34
2019-02-24T01:43:58.356Z,42.25
2019-02-24T01:46:28.106Z,42.03
2019-02-24T01:48:57.810Z,41.97
2019-02-24T01:51:27.551Z,41.97
2019-02-24T01:53:57.199Z,42.00
2019-02-24T01:56:27.057Z,41.98
2019-02-24T01:58:56.762Z,41.84
2019-02-24T02:01:26.463Z,41.97
2019-02-24T02:03:56.175Z,41.59
2019-02-24T02:06:25.950Z,41.79
2019-02-24T02:08:55.583Z,41.40
2019-02-24T02:11:25.277Z,41.69
2019-02-24T02:13:54.988Z,41.45
2019-02-24T02:16:24.625Z,41.53
2019-02-24T02:18:54.326Z,41.15
2019-02-24T02:21:23.996Z,41.04
2019-02-24T02:23:53.767Z,41.04
2019-02-24T02:26:23.450Z,41.04
2019-02-24T02:28:53.148Z,40.64
2019-02-24T02:31:22.786Z,40.24
2019-02-24T02:33:52.469Z,40.30
2019-02-24T02:36:22.144Z,40.58
2019-02-24T02:38:52.362Z,40.43
2019-02-24T02:41:21.996Z,40.62
2019-02-24T02:43:51.798Z,40.35
2019-02-24T02:46:21.559Z,40.31
2019-02-24T02:48:51.279Z,40.42
2019-02-24T02:51:21.009Z,40.00
2019-02-24T02:53:50.667Z,39.93
2019-02-24T02:56:20.382Z,40.13
2019-02-24T02:58:54.370Z,40.15
2019-02-24T03:01:21.528Z,40.15
2019-02-24T03:03:51.285Z,39.99
2019-02-24T03:06:22.627Z,39.92
2019-02-24T03:08:53.565Z,40.06
2019-02-24T03:11:23.406Z,40.15
2019-02-24T03:13:53.095Z,40.16
2019-02-24T03:16:24.431Z,40.17
2019-02-24T03:18:54.213Z,40.10
2019-02-24T03:21:23.914Z,39.95
2019-02-24T03:23:53.609Z,39.70
2019-02-24T03:26:23.485Z,39.97
2019-02-24T03:28:53.145Z,40.20
2019-02-24T03:31:22.850Z,40.15
2019-02-24T03:33:52.523Z,39.74
2019-02-24T03:36:22.286Z,39.69
2019-02-24T03:38:51.952Z,39.64
2019-02-24T03:41:21.781Z,39.40
2019-02-24T03:43:51.517Z,39.10
2019-02-24T03:46:21.284Z,39.17
2019-02-24T03:48:50.923Z,38.77
2019-02-24T03:51:20.690Z,38.99
2019-02-24T03:53:50.697Z,39.16
2019-02-24T03:56:20.578Z,39.11
2019-02-24T03:58:50.473Z,39.04
2019-02-24T04:01:20.345Z,39.08
2019-02-24T04:03:50.162Z,39.17
2019-02-24T04:06:19.833Z,39.20
2019-02-24T04:08:49.499Z,39.06
2019-02-24T04:11:19.139Z,38.71
2019-02-24T04:13:49.050Z,38.74
2019-02-24T04:16:18.833Z,38.82
2019-02-24T04:18:48.529Z,38.68
2019-02-24T04:21:18.208Z,38.88
2019-02-24T04:23:47.899Z,38.97
2019-02-24T04:26:17.571Z,38.86
2019-02-24T04:28:47.273Z,38.91
2019-02-24T04:31:16.932Z,39.03
2019-02-24T04:33:46.599Z,38.76
2019-02-24T04:36:17.560Z,38.93
2019-02-24T04:38:47.218Z,39.02
2019-02-24T04:41:16.888Z,39.07
2019-02-24T04:43:46.560Z,38.92
2019-02-24T04:46:16.320Z,39.01
2019-02-24T04:48:45.988Z,39.04
2019-02-24T04:51:15.717Z,38.89
2019-02-24T04:53:45.348Z,39.10
2019-02-24T04:56:15.128Z,39.05
2019-02-24T04:58:44.806Z,38.92
2019-02-24T05:01:14.710Z,38.93
2019-02-24T05:03:44.373Z,38.96
2019-02-24T05:06:14.054Z,39.00
2019-02-24T05:08:44.132Z,39.02
2019-02-24T05:11:13.900Z,39.23
2019-02-24T05:13:43.554Z,39.23
2019-02-24T05:16:13.438Z,39.28
2019-02-24T05:18:43.118Z,39.41
2019-02-24T05:21:12.757Z,39.55
2019-02-24T05:23:43.136Z,39.47
2019-02-24T05:26:12.923Z,39.61
2019-02-24T05:28:42.637Z,40.16
2019-02-24T05:31:12.378Z,40.11
2019-02-24T05:33:42.163Z,40.44
2019-02-24T05:36:11.808Z,40.55
2019-02-24T05:38:41.521Z,40.62
2019-02-24T05:41:11.183Z,40.61
2019-02-24T05:43:40.925Z,40.92
2019-02-24T05:46:10.640Z,41.05
2019-02-24T05:48:40.418Z,41.23
2019-02-24T05:51:10.063Z,41.18
2019-02-24T05:53:39.773Z,41.01
2019-02-24T05:56:09.522Z,41.46
2019-02-24T05:58:39.214Z,41.77
2019-02-24T06:01:08.925Z,41.33
2019-02-24T06:03:38.621Z,41.16
2019-02-24T06:06:08.299Z,41.14
2019-02-24T06:08:37.941Z,40.86
2019-02-24T06:11:07.742Z,40.72
2019-02-24T06:13:37.502Z,40.98
2019-02-24T06:16:07.242Z,40.83
2019-02-24T06:18:37.048Z,40.31
2019-02-24T06:21:08.232Z,40.33
2019-02-24T06:23:37.918Z,40.20
2019-02-24T06:26:07.756Z,39.88
2019-02-24T06:28:37.441Z,39.83
2019-02-24T06:31:07.131Z,40.06
2019-02-24T06:33:36.872Z,39.99
2019-02-24T06:36:06.540Z,39.95
2019-02-24T06:38:36.228Z,39.82
2019-02-24T06:41:06.014Z,39.71
2019-02-24T06:43:35.753Z,39.52
2019-02-24T06:46:05.524Z,39.37
2019-02-24T06:48:35.191Z,39.11
2019-02-24T06:51:07.265Z,38.99
2019-02-24T06:53:36.949Z,38.76
2019-02-24T06:56:06.664Z,38.53
2019-02-24T06:58:36.423Z,38.29
2019-02-24T07:01:06.302Z,37.97
2019-02-24T07:03:36.124Z,37.93
2019-02-24T07:06:05.905Z,37.44
2019-02-24T07:08:35.616Z,37.05
2019-02-24T07:11:05.320Z,37.48
2019-02-24T07:13:35.071Z,37.03
2019-02-24T07:16:04.724Z,36.97
2019-02-24T07:18:34.471Z,36.69
2019-02-24T07:21:04.151Z,36.25
2019-02-24T07:23:33.859Z,36.11
2019-02-24T07:26:03.543Z,35.25
2019-02-24T07:28:33.217Z,35.11
2019-02-24T07:31:02.957Z,35.38
2019-02-24T07:33:32.630Z,34.69
2019-02-24T07:36:02.306Z,34.27
2019-02-24T07:38:31.978Z,34.05
2019-02-24T07:41:01.715Z,33.80
2019-02-24T07:43:31.452Z,33.35
2019-02-24T07:46:01.196Z,33.31
2019-02-24T07:48:30.986Z,33.51
2019-02-24T07:51:00.638Z,33.11
2019-02-24T07:53:30.314Z,32.83
2019-02-24T07:56:00.324Z,32.80
2019-02-24T07:58:30.111Z,32.58
2019-02-24T08:00:59.858Z,32.26
2019-02-24T08:03:29.596Z,37.03
2019-02-24T08:05:59.284Z,34.21
2019-02-24T08:08:29.291Z,32.29
2019-02-24T08:10:59.026Z,30.96
2019-02-24T08:13:28.696Z,31.69
2019-02-24T08:15:58.394Z,30.87
2019-02-24T08:18:28.067Z,30.78
2019-02-24T08:20:57.802Z,30.52
2019-02-24T08:23:27.633Z,30.45
2019-02-24T08:25:57.434Z,29.88
2019-02-24T08:28:27.190Z,29.64
2019-02-24T08:30:57.015Z,29.37
2019-02-24T08:33:26.766Z,28.62
2019-02-24T08:35:56.492Z,28.68
2019-02-24T08:38:27.797Z,28.37
2019-02-24T08:40:57.483Z,28.89
2019-02-24T08:43:27.166Z,30.94
2019-02-24T08:45:56.820Z,28.94
2019-02-24T08:48:26.516Z,28.36
2019-02-24T08:50:56.168Z,27.46
2019-02-24T08:53:26.153Z,27.93
2019-02-24T08:55:55.801Z,27.52
2019-02-24T08:58:25.506Z,27.14
2019-02-24T09:00:55.408Z,27.29
2019-02-24T09:03:25.116Z,27.10
2019-02-24T09:05:54.806Z,26.68
2019-02-24T09:08:24.492Z,26.11
2019-02-24T09:10:54.158Z,25.93
2019-02-24T09:13:23.851Z,25.58
2019-02-24T09:15:53.601Z,25.71
2019-02-24T09:18:23.292Z,25.73
2019-02-24T09:20:53.052Z,25.85
2019-02-24T09:23:22.744Z,25.33
2019-02-24T09:25:52.394Z,25.13
2019-02-24T09:28:22.195Z,25.23
2019-02-24T09:31:00.354Z,25.33
2019-02-24T09:33:23.533Z,27.01
2019-02-24T09:35:54.909Z,25.34
2019-02-24T09:38:24.718Z,25.52
2019-02-24T09:40:54.383Z,25.46
2019-02-24T09:43:24.095Z,25.29
2019-02-24T09:45:54.022Z,30.23
2019-02-24T09:48:23.726Z,25.69
2019-02-24T09:50:53.357Z,27.44
2019-02-24T09:53:23.007Z,25.66
2019-02-24T09:55:52.721Z,24.96
2019-02-24T09:58:22.389Z,25.00
2019-02-24T10:00:52.087Z,24.94
2019-02-24T10:03:21.741Z,25.11
2019-02-24T10:05:51.612Z,25.30
2019-02-24T10:08:21.364Z,25.08
2019-02-24T10:10:51.040Z,25.12
2019-02-24T10:13:20.821Z,25.65
2019-02-24T10:15:52.154Z,25.33
2019-02-24T10:18:21.970Z,25.96
2019-02-24T10:20:51.789Z,25.95
2019-02-24T10:23:21.544Z,25.88
2019-02-24T10:25:51.199Z,25.73
2019-02-24T10:28:29.869Z,25.29
2019-02-24T10:31:01.467Z,25.49
2019-02-24T10:33:30.972Z,25.74
2019-02-24T10:36:00.785Z,25.54
2019-02-24T10:38:30.496Z,24.95
2019-02-24T10:41:00.207Z,24.90
2019-02-24T10:43:29.924Z,25.07
2019-02-24T10:45:59.645Z,24.18
2019-02-24T10:48:29.467Z,24.00
2019-02-24T10:50:59.166Z,24.34
2019-02-24T10:53:28.874Z,23.86
2019-02-24T10:55:58.747Z,23.74
2019-02-24T10:58:34.773Z,26.22
2019-02-24T11:01:00.010Z,30.71
2019-02-24T11:03:29.682Z,29.03
2019-02-24T11:06:00.431Z,26.49
2019-02-24T11:08:30.123Z,25.11
2019-02-24T11:10:59.818Z,23.74
2019-02-24T11:13:29.583Z,23.33
2019-02-24T11:15:59.260Z,23.52
2019-02-24T11:18:28.943Z,23.64
2019-02-24T11:20:58.767Z,23.08
2019-02-24T11:23:28.519Z,22.26
2019-02-24T11:25:58.422Z,29.05
2019-02-24T11:28:28.126Z,28.62
2019-02-24T11:30:57.912Z,23.96
2019-02-24T11:33:27.669Z,23.15
2019-02-24T11:35:57.440Z,23.32
2019-02-24T11:38:27.129Z,23.81
2019-02-24T11:40:56.976Z,23.88
2019-02-24T11:43:26.682Z,22.32
2019-02-24T11:45:56.443Z,22.14
2019-02-24T11:48:26.239Z,21.98
2019-02-24T11:50:55.927Z,22.02
2019-02-24T11:53:25.753Z,22.35
2019-02-24T11:55:55.513Z,22.23
2019-02-24T11:58:25.256Z,22.19
2019-02-24T12:00:55.028Z,22.06
2019-02-24T12:03:24.744Z,22.30
2019-02-24T12:05:54.498Z,22.89
2019-02-24T12:08:24.161Z,23.12
2019-02-24T12:10:53.871Z,23.47
2019-02-24T12:13:23.797Z,23.30
2019-02-24T12:15:54.823Z,23.31
2019-02-24T12:18:24.677Z,23.30
2019-02-24T12:20:54.519Z,23.63
2019-02-24T12:23:24.200Z,22.95
2019-02-24T12:25:53.896Z,23.21
2019-02-24T12:28:24.159Z,22.20
2019-02-24T12:30:53.878Z,22.57
2019-02-24T12:33:23.628Z,22.25
2019-02-24T12:35:53.338Z,22.81
2019-02-24T12:38:23.054Z,22.97
2019-02-24T12:40:52.721Z,23.17
2019-02-24T12:43:22.497Z,23.14
2019-02-24T12:45:52.338Z,23.20
2019-02-24T12:48:22.326Z,22.84
2019-02-24T12:50:52.011Z,21.57
2019-02-24T12:53:21.822Z,22.31
2019-02-24T12:55:51.753Z,22.52
2019-02-24T12:58:21.521Z,21.24
2019-02-24T13:00:51.526Z,20.81
2019-02-24T13:03:24.032Z,21.68
2019-02-24T13:05:52.852Z,22.09
2019-02-24T13:08:22.597Z,20.47
2019-02-24T13:10:53.106Z,20.65
2019-02-24T13:13:22.864Z,19.58
2019-02-24T13:15:52.520Z,19.15
2019-02-24T13:18:23.804Z,18.74
2019-02-24T13:20:53.677Z,20.34
2019-02-24T13:23:23.570Z,18.74
2019-02-24T13:25:53.513Z,18.24
2019-02-24T13:28:23.542Z,18.44
2019-02-24T13:30:53.336Z,18.18
2019-02-24T13:33:23.020Z,18.13
2019-02-24T13:35:52.767Z,18.03
2019-02-24T13:38:22.480Z,19.90
2019-02-24T13:40:52.186Z,18.12
2019-02-24T13:43:21.955Z,25.06
2019-02-24T13:45:51.854Z,23.74
2019-02-24T13:48:21.543Z,27.22
2019-02-24T13:50:51.222Z,27.19
2019-02-24T13:53:21.013Z,20.33
2019-02-24T13:55:50.681Z,18.46
2019-02-24T13:58:20.404Z,18.32
2019-02-24T14:00:50.139Z,18.16
2019-02-24T14:03:19.843Z,18.17
2019-02-24T14:05:49.534Z,18.11
2019-02-24T14:08:19.291Z,17.68
2019-02-24T14:10:49.027Z,17.67
2019-02-24T14:13:18.735Z,17.26
2019-02-24T14:15:48.491Z,17.28
2019-02-24T14:18:18.146Z,17.43
2019-02-24T14:20:47.846Z,17.42
2019-02-24T14:23:17.573Z,17.15
2019-02-24T14:25:47.281Z,17.15
2019-02-24T14:28:17.039Z,17.16
2019-02-24T14:30:46.817Z,17.50
2019-02-24T14:33:16.587Z,17.21
2019-02-24T14:35:46.268Z,17.43
2019-02-24T14:38:16.040Z,19.14
2019-02-24T14:40:45.819Z,18.13
2019-02-24T14:43:15.537Z,18.06
2019-02-24T14:45:49.661Z,18.52
2019-02-24T14:48:17.616Z,18.19
2019-02-24T14:50:47.288Z,18.30
2019-02-24T14:53:17.012Z,21.82
2019-02-24T14:55:46.733Z,21.57
2019-02-24T14:58:16.433Z,21.79
2019-02-24T15:00:46.674Z,23.91
2019-02-24T15:03:16.397Z,21.45
2019-02-24T15:05:46.195Z,19.95
2019-02-24T15:08:15.926Z,19.61
2019-02-24T15:10:45.788Z,23.83
2019-02-24T15:13:15.460Z,25.92
2019-02-24T15:15:45.189Z,22.04
2019-02-24T15:18:14.975Z,20.01
2019-02-24T15:20:44.743Z,19.83
2019-02-24T15:23:14.510Z,20.63
2019-02-24T15:25:44.197Z,19.92
2019-02-24T15:28:14.046Z,19.91
2019-02-24T15:30:43.974Z,19.34
2019-02-24T15:33:13.703Z,19.70
2019-02-24T15:35:43.506Z,19.41
2019-02-24T15:38:13.203Z,19.81
2019-02-24T15:40:43.042Z,20.32
2019-02-24T15:43:12.805Z,19.52
2019-02-24T15:45:42.633Z,19.36
2019-02-24T15:48:12.340Z,18.90
2019-02-24T15:50:42.296Z,19.00
2019-02-24T15:53:12.029Z,18.92
2019-02-24T15:55:41.730Z,19.04
2019-02-24T15:58:11.459Z,19.34
2019-02-24T16:00:41.405Z,18.99
2019-02-24T16:03:11.170Z,19.31
2019-02-24T16:05:41.143Z,19.08
2019-02-24T16:08:10.866Z,19.25
2019-02-24T16:10:40.631Z,18.42
2019-02-24T16:13:16.683Z,18.86
2019-02-24T16:15:41.802Z,18.65
2019-02-24T16:18:11.587Z,18.14
2019-02-24T16:20:41.469Z,18.60
2019-02-24T16:23:11.142Z,18.85
2019-02-24T16:25:40.875Z,20.00
2019-02-24T16:28:10.650Z,20.57
2019-02-24T16:30:40.630Z,21.04
2019-02-24T16:33:10.927Z,21.60
2019-02-24T16:35:41.388Z,22.08
2019-02-24T16:38:11.068Z,22.32
2019-02-24T16:40:40.842Z,22.64
2019-02-24T16:43:10.654Z,22.71
2019-02-24T16:45:40.550Z,22.77
2019-02-24T16:48:10.341Z,22.99
2019-02-24T16:50:40.134Z,23.46
2019-02-24T16:53:09.881Z,23.25
2019-02-24T16:55:39.740Z,23.40
2019-02-24T16:58:09.887Z,23.50
2019-02-24T17:00:39.886Z,23.79
2019-02-24T17:03:09.662Z,24.09
2019-02-24T17:05:39.705Z,24.06
2019-02-24T17:08:09.445Z,24.27
2019-02-24T17:10:39.189Z,24.46
2019-02-24T17:13:08.902Z,24.11
2019-02-24T17:15:38.718Z,24.28
2019-02-24T17:18:08.399Z,24.43
2019-02-24T17:20:38.097Z,24.06
2019-02-24T17:23:07.822Z,24.16
2019-02-24T17:25:37.499Z,24.33
2019-02-24T17:28:07.330Z,24.00
2019-02-24T17:30:37.365Z,24.44
2019-02-24T17:33:07.523Z,24.30
2019-02-24T17:35:37.319Z,24.42
2019-02-24T17:38:07.089Z,24.46
2019-02-24T17:40:36.801Z,24.80
2019-02-24T17:43:06.682Z,25.23
2019-02-24T17:45:36.423Z,25.51
2019-02-24T17:48:06.182Z,26.03
2019-02-24T17:50:35.957Z,25.94
2019-02-24T17:53:05.691Z,26.48
2019-02-24T17:55:35.403Z,26.77
2019-02-24T17:58:05.136Z,26.21
2019-02-24T18:00:36.507Z,26.35
2019-02-24T18:03:06.215Z,26.10
2019-02-24T18:05:35.925Z,26.20
2019-02-24T18:08:05.636Z,26.40
2019-02-24T18:10:35.545Z,26.42
2019-02-24T18:13:05.858Z,26.43
2019-02-24T18:15:35.741Z,26.06
2019-02-24T18:18:05.509Z,26.04
2019-02-24T18:20:35.296Z,26.34
2019-02-24T18:23:05.164Z,26.29
2019-02-24T18:25:34.822Z,26.30
2019-02-24T18:28:04.707Z,26.13
2019-02-24T18:30:34.377Z,26.09
2019-02-24T18:33:04.195Z,26.33
2019-02-24T18:35:33.884Z,26.04
2019-02-24T18:38:03.665Z,26.34
2019-02-24T18:40:33.483Z,26.67
2019-02-24T18:43:03.217Z,26.46
2019-02-24T18:45:32.927Z,26.66
2019-02-24T18:48:02.719Z,26.65
2019-02-24T18:50:32.461Z,26.74
2019-02-24T18:53:02.170Z,27.00
2019-02-24T18:55:31.924Z,27.11
2019-02-24T18:58:01.786Z,27.28
2019-02-24T19:00:32.597Z,27.45
2019-02-24T19:03:02.410Z,27.70
2019-02-24T19:05:32.095Z,27.65
2019-02-24T19:08:01.884Z,27.40
2019-02-24T19:10:31.689Z,27.56
2019-02-24T19:13:01.393Z,27.05
2019-02-24T19:15:31.261Z,27.21
2019-02-24T19:18:00.910Z,27.17
2019-02-24T19:20:30.731Z,27.53
2019-02-24T19:23:00.406Z,27.60
2019-02-24T19:25:30.314Z,27.91
2019-02-24T19:28:00.083Z,27.77
2019-02-24T19:30:29.787Z,28.13
2019-02-24T19:32:59.541Z,28.40
2019-02-24T19:35:29.335Z,27.93
2019-02-24T19:37:59.183Z,28.45
2019-02-24T19:40:28.931Z,28.67
2019-02-24T19:42:58.687Z,28.51
2019-02-24T19:45:28.795Z,28.94
2019-02-24T19:47:58.477Z,28.73
2019-02-24T19:50:28.176Z,29.06
2019-02-24T19:52:57.885Z,29.61
2019-02-24T19:55:27.592Z,30.11
2019-02-24T19:57:57.310Z,30.51
2019-02-24T20:00:27.878Z,31.04
2019-02-24T20:02:57.590Z,31.42
2019-02-24T20:05:27.344Z,31.93
2019-02-24T20:07:57.029Z,32.29
2019-02-24T20:10:29.913Z,32.14
2019-02-24T20:12:59.690Z,32.76
2019-02-24T20:15:29.613Z,33.00
2019-02-24T20:17:59.401Z,33.11
2019-02-24T20:20:30.476Z,33.39
2019-02-24T20:23:01.844Z,33.25
2019-02-24T20:25:31.524Z,33.22
2019-02-24T20:28:01.304Z,32.44
2019-02-24T20:30:36.733Z,32.78
2019-02-24T20:33:06.578Z,32.67
2019-02-24T20:35:36.313Z,32.17
2019-02-24T20:38:06.085Z,32.21
2019-02-24T20:40:35.854Z,33.00
2019-02-24T20:43:05.803Z,33.31
2019-02-24T20:45:35.512Z,33.79
2019-02-24T20:48:05.498Z,34.02
2019-02-24T20:50:36.199Z,34.58
2019-02-24T20:53:06.196Z,34.93
2019-02-24T20:55:35.946Z,35.00
2019-02-24T20:58:05.843Z,34.79
2019-02-24T21:00:44.006Z,35.15
2019-02-24T21:03:13.749Z,35.14
2019-02-24T21:05:43.511Z,35.49
2019-02-24T21:08:13.304Z,36.02
2019-02-24T21:10:43.141Z,36.21
2019-02-24T21:13:12.937Z,35.90
2019-02-24T21:15:42.685Z,35.88
2019-02-24T21:18:12.514Z,35.90
2019-02-24T21:20:42.806Z,36.23
2019-02-24T21:23:12.522Z,36.61
2019-02-24T21:25:42.284Z,37.21
2019-02-24T21:28:12.217Z,37.71
2019-02-24T21:30:42.056Z,37.74
2019-02-24T21:33:11.782Z,37.14
2019-02-24T21:35:41.489Z,37.51
2019-02-24T21:38:11.220Z,37.61
2019-02-24T21:40:41.053Z,37.51
2019-02-24T21:43:10.758Z,37.29
2019-02-24T21:45:41.649Z,37.51
2019-02-24T21:48:11.717Z,38.29
2019-02-24T21:50:41.954Z,37.46
2019-02-24T21:53:11.698Z,37.44
2019-02-24T21:55:41.452Z,37.76
2019-02-24T21:58:11.144Z,38.19
2019-02-24T22:00:41.463Z,38.07
2019-02-24T22:03:11.224Z,38.10
2019-02-24T22:05:40.902Z,37.99
2019-02-24T22:08:10.815Z,38.10
2019-02-24T22:10:40.484Z,38.02
2019-02-24T22:13:10.369Z,38.09
2019-02-24T22:15:40.102Z,38.34
2019-02-24T22:18:09.892Z,38.34
2019-02-24T22:20:40.073Z,38.51
2019-02-24T22:23:09.975Z,38.76
2019-02-24T22:25:39.685Z,38.56
2019-02-24T22:28:09.428Z,38.61
2019-02-24T22:30:39.150Z,38.98
2019-02-24T22:33:08.809Z,38.13
2019-02-24T22:35:39.749Z,38.10
2019-02-24T22:38:09.407Z,38.19
2019-02-24T22:40:39.078Z,38.32
2019-02-24T22:43:08.790Z,38.39
2019-02-24T22:45:38.708Z,38.55
2019-02-24T22:48:08.533Z,38.88
2019-02-24T22:50:38.225Z,38.84
2019-02-24T22:53:08.019Z,39.59
2019-02-24T22:55:37.771Z,39.70
2019-02-24T22:58:07.409Z,40.25
2019-02-24T23:00:50.505Z,40.27
2019-02-24T23:03:20.942Z,40.24
2019-02-24T23:05:50.918Z,39.96
2019-02-24T23:08:20.579Z,39.73
2019-02-24T23:10:50.942Z,39.41
2019-02-24T23:13:20.834Z,39.52
2019-02-24T23:15:50.515Z,39.87
2019-02-24T23:18:20.172Z,40.45
2019-02-24T23:20:50.082Z,40.53
2019-02-24T23:23:19.719Z,40.24
2019-02-24T23:25:49.663Z,41.14
2019-02-24T23:28:19.336Z,41.33
2019-02-24T23:30:49.218Z,41.30
2019-02-24T23:33:18.962Z,41.36
2019-02-24T23:35:48.661Z,41.87
2019-02-24T23:38:18.471Z,42.29
2019-02-24T23:40:48.241Z,42.12
2019-02-24T23:43:18.022Z,42.25
2019-02-24T23:45:47.789Z,42.15
2019-02-24T23:48:17.520Z,42.73
2019-02-24T23:50:47.414Z,42.46
2019-02-24T23:53:17.068Z,41.62
2019-02-24T23:55:46.901Z,42.16
2019-02-24T23:58:16.637Z,41.86
